Time;durP1;ratioP1;P1;durP2;ratioP2;P2;SDS_P1;SDS_P2;PMS_P1;PMS_P2;Temp;Humidity;BMP_temperature;BMP_pressure;BME280_temperature;BME280_humidity;BME280_pressure;Samples;Min_cycle;Max_cycle;Signal;HPM_P1;HPM_P2
2022/12/12 00:00:45;;;;;;;25.65;14.60;;;;;;;;;;5040158;28;20033;-73
2022/12/12 00:03:11;;;;;;;24.00;10.80;;;;;;;;;;5038490;28;20032;-73
2022/12/12 00:05:37;;;;;;;18.50;10.60;;;;;;;;;;5030696;28;20040;-73
2022/12/12 00:08:03;;;;;;;17.45;9.65;;;;;;;;;;5046099;28;20043;-73
2022/12/12 00:10:29;;;;;;;18.48;9.88;;;;;;;;;;5039810;28;20135;-73
2022/12/12 00:12:55;;;;;;;19.85;9.85;;;;;;;;;;5036797;28;20059;-73
2022/12/12 00:15:22;;;;;;;17.73;9.68;;;;;;;;;;5044195;28;20045;-73
2022/12/12 00:17:48;;;;;;;19.20;9.65;;;;;;;;;;5042746;28;21007;-73
2022/12/12 00:20:14;;;;;;;14.73;7.75;;;;;;;;;;5044347;28;20032;-73
2022/12/12 00:22:40;;;;;;;20.27;10.38;;;;;;;;;;5040292;28;20044;-74
2022/12/12 00:25:06;;;;;;;16.85;9.50;;;;;;;;;;5043368;28;20041;-73
2022/12/12 00:27:33;;;;;;;17.90;9.82;;;;;;;;;;5041324;28;20037;-74
2022/12/12 00:29:59;;;;;;;18.27;9.68;;;;;;;;;;5044491;28;20516;-73
2022/12/12 00:32:25;;;;;;;18.98;10.30;;;;;;;;;;5041751;28;20037;-73
2022/12/12 00:34:51;;;;;;;18.42;10.15;;;;;;;;;;5035335;28;20199;-73
2022/12/12 00:37:17;;;;;;;21.30;10.43;;;;;;;;;;5039480;28;20072;-73
2022/12/12 00:39:43;;;;;;;19.67;10.40;;;;;;;;;;5042471;28;20127;-73
2022/12/12 00:42:09;;;;;;;20.30;10.70;;;;;;;;;;5028983;28;20033;-73
2022/12/12 00:44:35;;;;;;;21.55;11.35;;;;;;;;;;5042585;28;20041;-73
2022/12/12 00:47:01;;;;;;;21.85;12.00;;;;;;;;;;5039279;28;20179;-74
2022/12/12 00:49:27;;;;;;;21.70;10.57;;;;;;;;;;5025871;28;20064;-73
2022/12/12 00:51:53;;;;;;;20.58;11.40;;;;;;;;;;5048299;28;20033;-73
2022/12/12 00:54:19;;;;;;;19.85;11.40;;;;;;;;;;5041919;28;20041;-74
2022/12/12 00:56:45;;;;;;;21.38;11.27;;;;;;;;;;5044519;28;20037;-73
2022/12/12 00:59:11;;;;;;;22.75;11.57;;;;;;;;;;5047879;28;20037;-72
2022/12/12 01:01:37;;;;;;;21.85;13.13;;;;;;;;;;5042847;28;20040;-73
2022/12/12 01:04:03;;;;;;;23.25;13.75;;;;;;;;;;5048865;28;20029;-73
2022/12/12 01:06:30;;;;;;;22.33;12.60;;;;;;;;;;5046912;28;20445;-73
2022/12/12 01:08:56;;;;;;;24.10;15.10;;;;;;;;;;5041439;28;20353;-73
2022/12/12 01:11:23;;;;;;;24.30;13.40;;;;;;;;;;5040938;28;20037;-73
2022/12/12 01:13:50;;;;;;;23.45;12.13;;;;;;;;;;5038214;28;20037;-73
2022/12/12 01:16:16;;;;;;;19.75;11.65;;;;;;;;;;5045784;28;20032;-73
2022/12/12 01:18:43;;;;;;;20.92;11.93;;;;;;;;;;5034517;28;20489;-73
2022/12/12 01:21:10;;;;;;;20.77;10.73;;;;;;;;;;5035347;28;20033;-73
2022/12/12 01:23:36;;;;;;;20.42;10.32;;;;;;;;;;5039753;28;20047;-74
2022/12/12 01:26:07;;;;;;;20.80;10.98;;;;;;;;;;5041638;28;20458;-73
2022/12/12 01:28:33;;;;;;;18.10;9.57;;;;;;;;;;5045803;28;20025;-73
2022/12/12 01:30:59;;;;;;;20.38;10.73;;;;;;;;;;5037056;28;20029;-73
2022/12/12 01:33:25;;;;;;;27.25;14.65;;;;;;;;;;5037127;28;20623;-74
2022/12/12 01:35:51;;;;;;;22.35;13.13;;;;;;;;;;5039415;28;20040;-73
2022/12/12 01:38:17;;;;;;;20.65;9.77;;;;;;;;;;5035411;28;20420;-73
2022/12/12 01:40:43;;;;;;;18.20;10.30;;;;;;;;;;5038631;28;20079;-73
2022/12/12 01:43:14;;;;;;;18.35;10.25;;;;;;;;;;5041310;28;20032;-73
2022/12/12 01:45:55;;;;;;;15.88;8.70;;;;;;;;;;5043342;28;20029;-73
2022/12/12 01:48:22;;;;;;;15.70;7.90;;;;;;;;;;5039221;28;20051;-73
2022/12/12 01:50:49;;;;;;;15.05;7.85;;;;;;;;;;5037887;28;20045;-73
2022/12/12 01:53:16;;;;;;;13.25;6.70;;;;;;;;;;5041731;28;20049;-74
2022/12/12 01:55:45;;;;;;;12.48;6.13;;;;;;;;;;5039421;28;20127;-73
2022/12/12 01:58:11;;;;;;;13.18;6.38;;;;;;;;;;5047238;28;20032;-73
2022/12/12 02:00:37;;;;;;;14.10;6.82;;;;;;;;;;5040401;28;20033;-73
2022/12/12 02:03:03;;;;;;;16.98;8.65;;;;;;;;;;5045345;28;20075;-74
2022/12/12 02:05:40;;;;;;;15.18;8.40;;;;;;;;;;5026258;28;20808;-73
2022/12/12 02:08:07;;;;;;;14.23;7.30;;;;;;;;;;5036933;28;20037;-73
2022/12/12 02:10:33;;;;;;;16.17;8.60;;;;;;;;;;5036188;28;20811;-73
2022/12/12 02:13:01;;;;;;;18.55;8.63;;;;;;;;;;5041229;28;20476;-73
2022/12/12 02:15:31;;;;;;;16.77;9.27;;;;;;;;;;5042502;28;20040;-74
2022/12/12 02:18:08;;;;;;;18.55;10.25;;;;;;;;;;5037449;28;20028;-73
2022/12/12 02:20:46;;;;;;;20.88;11.23;;;;;;;;;;5038733;28;20127;-73
2022/12/12 02:23:13;;;;;;;19.38;10.20;;;;;;;;;;5039636;28;20109;-73
2022/12/12 02:25:45;;;;;;;18.13;9.27;;;;;;;;;;5037019;28;20395;-73
2022/12/12 02:28:34;;;;;;;15.73;8.25;;;;;;;;;;5038456;28;20025;-73
2022/12/12 02:31:21;;;;;;;16.00;7.85;;;;;;;;;;5026494;28;20810;-73
2022/12/12 02:33:47;;;;;;;16.60;8.88;;;;;;;;;;5042373;28;20045;-73
2022/12/12 02:36:16;;;;;;;17.92;9.32;;;;;;;;;;5041236;28;20464;-73
2022/12/12 02:38:52;;;;;;;17.70;9.63;;;;;;;;;;5039767;28;20028;-73
2022/12/12 02:41:30;;;;;;;17.27;8.68;;;;;;;;;;5036407;28;20361;-73
2022/12/12 02:44:14;;;;;;;17.40;10.63;;;;;;;;;;5037500;28;20024;-74
2022/12/12 02:46:51;;;;;;;18.02;9.85;;;;;;;;;;5036204;28;20124;-73
2022/12/12 02:49:36;;;;;;;17.48;7.93;;;;;;;;;;5032993;28;20042;-73
2022/12/12 02:52:02;;;;;;;15.63;8.10;;;;;;;;;;5035935;28;20037;-74
2022/12/12 02:54:28;;;;;;;18.27;8.48;;;;;;;;;;5039362;28;20075;-74
2022/12/12 02:56:59;;;;;;;13.40;7.30;;;;;;;;;;5038857;28;20021;-73
2022/12/12 02:59:28;;;;;;;16.33;7.68;;;;;;;;;;5034921;28;20033;-73
2022/12/12 03:02:07;;;;;;;14.88;7.63;;;;;;;;;;5031537;28;20064;-73
2022/12/12 03:10:13;;;;;;;15.68;9.13;;;;;;;;;;5038113;28;20049;-73
2022/12/12 03:12:39;;;;;;;15.75;7.93;;;;;;;;;;5032439;28;20037;-73
2022/12/12 03:15:11;;;;;;;17.45;9.63;;;;;;;;;;5036783;28;20048;-73
2022/12/12 03:17:56;;;;;;;16.98;8.45;;;;;;;;;;5029036;28;20033;-73
2022/12/12 03:20:32;;;;;;;15.05;7.90;;;;;;;;;;5040654;28;20067;-73
2022/12/12 03:23:09;;;;;;;17.70;8.90;;;;;;;;;;5034071;28;20021;-73
2022/12/12 03:25:35;;;;;;;15.35;8.30;;;;;;;;;;5035316;28;20033;-73
2022/12/12 03:28:01;;;;;;;16.83;8.07;;;;;;;;;;5031960;28;20555;-73
2022/12/12 03:30:29;;;;;;;16.98;8.27;;;;;;;;;;5040383;28;20044;-73
2022/12/12 03:32:59;;;;;;;16.27;8.48;;;;;;;;;;5033768;28;20035;-73
2022/12/12 03:35:35;;;;;;;15.80;8.57;;;;;;;;;;5036953;28;20377;-73
2022/12/12 03:38:05;;;;;;;14.55;7.32;;;;;;;;;;5039468;28;20037;-73
2022/12/12 03:40:37;;;;;;;15.95;8.48;;;;;;;;;;5035952;28;20040;-73
2022/12/12 03:43:06;;;;;;;16.30;8.52;;;;;;;;;;5037498;28;20029;-74
2022/12/12 03:45:36;;;;;;;15.88;7.88;;;;;;;;;;5032132;28;20041;-74
2022/12/12 03:48:10;;;;;;;16.48;9.35;;;;;;;;;;5033110;28;20151;-73
2022/12/12 03:50:49;;;;;;;16.48;8.70;;;;;;;;;;5032134;28;20068;-73
2022/12/12 03:53:21;;;;;;;17.35;8.88;;;;;;;;;;5024372;28;20037;-73
2022/12/12 03:55:57;;;;;;;17.40;9.10;;;;;;;;;;5036582;28;20404;-73
2022/12/12 03:58:27;;;;;;;17.42;9.85;;;;;;;;;;5033038;28;20029;-74
2022/12/12 04:00:55;;;;;;;17.92;9.70;;;;;;;;;;5035453;28;20454;-73
2022/12/12 04:03:21;;;;;;;20.15;9.48;;;;;;;;;;5036616;28;20040;-73
2022/12/12 04:12:57;;;;;;;17.88;9.43;;;;;;;;;;5037807;28;20424;-73
2022/12/12 04:14:23;;;;;;;17.73;8.73;;;;;;;;;;5033541;28;20040;-74
2022/12/12 04:16:59;;;;;;;18.42;9.75;;;;;;;;;;5028310;28;20503;-73
2022/12/12 04:25:08;;;;;;;18.08;9.02;;;;;;;;;;5041035;28;20067;-73
2022/12/12 04:27:37;;;;;;;18.13;9.27;;;;;;;;;;5031195;28;20041;-74
2022/12/12 04:30:03;;;;;;;15.15;8.07;;;;;;;;;;5035720;28;20033;-74
2022/12/12 04:32:48;;;;;;;17.27;9.88;;;;;;;;;;5033971;28;20041;-73
2022/12/12 04:35:17;;;;;;;16.10;9.10;;;;;;;;;;5038868;28;20033;-73
2022/12/12 04:37:52;;;;;;;18.50;8.98;;;;;;;;;;5036116;28;20069;-73
2022/12/12 04:40:23;;;;;;;14.95;7.85;;;;;;;;;;5036525;28;20036;-73
2022/12/12 04:43:12;;;;;;;13.48;6.93;;;;;;;;;;5035144;28;20037;-74
2022/12/12 04:45:40;;;;;;;15.38;7.90;;;;;;;;;;5030777;28;20073;-73
2022/12/12 04:48:08;;;;;;;15.93;8.45;;;;;;;;;;5036342;28;20557;-73
2022/12/12 04:50:34;;;;;;;15.52;8.30;;;;;;;;;;5029427;28;20053;-73
2022/12/12 04:53:02;;;;;;;12.85;7.03;;;;;;;;;;5029528;28;20040;-73
2022/12/12 04:55:31;;;;;;;15.32;8.77;;;;;;;;;;5040428;28;20047;-74
2022/12/12 04:57:57;;;;;;;15.63;8.38;;;;;;;;;;5035643;28;20103;-73
2022/12/12 05:00:23;;;;;;;13.10;7.13;;;;;;;;;;5043695;28;20499;-73
2022/12/12 05:03:08;;;;;;;20.50;9.93;;;;;;;;;;5038709;28;20030;-73
2022/12/12 05:05:34;;;;;;;14.98;8.30;;;;;;;;;;5039541;28;20071;-73
2022/12/12 05:08:27;;;;;;;14.52;8.52;;;;;;;;;;5032535;28;20113;-74
2022/12/12 05:10:58;;;;;;;14.60;8.25;;;;;;;;;;5036775;23;20065;-73
2022/12/12 05:13:27;;;;;;;11.57;6.28;;;;;;;;;;5020903;28;20049;-73
2022/12/12 05:15:54;;;;;;;14.82;7.90;;;;;;;;;;5026151;28;20030;-73
2022/12/12 05:18:21;;;;;;;17.30;8.50;;;;;;;;;;5021171;28;20074;-73
2022/12/12 05:20:47;;;;;;;14.07;8.10;;;;;;;;;;5028781;28;20030;-73
2022/12/12 05:23:13;;;;;;;17.02;8.25;;;;;;;;;;5006921;28;20109;-73
2022/12/12 05:25:39;;;;;;;18.20;9.88;;;;;;;;;;5022904;28;20037;-73
2022/12/12 05:28:05;;;;;;;14.82;8.43;;;;;;;;;;5023819;28;20129;-73
2022/12/12 05:30:32;;;;;;;15.60;7.72;;;;;;;;;;5024734;28;20033;-73
2022/12/12 05:32:58;;;;;;;15.68;8.93;;;;;;;;;;5008309;28;20044;-73
2022/12/12 05:35:24;;;;;;;17.65;9.27;;;;;;;;;;5025790;28;20041;-74
2022/12/12 05:37:50;;;;;;;15.57;8.00;;;;;;;;;;5024298;28;20026;-73
2022/12/12 05:40:16;;;;;;;14.27;8.05;;;;;;;;;;5022240;28;20038;-73
2022/12/12 05:42:42;;;;;;;17.30;8.95;;;;;;;;;;5021619;28;20037;-73
2022/12/12 05:45:10;;;;;;;16.25;8.52;;;;;;;;;;5010176;28;20065;-73
2022/12/12 05:47:36;;;;;;;15.88;8.07;;;;;;;;;;5027587;28;20788;-73
2022/12/12 05:50:02;;;;;;;17.80;9.27;;;;;;;;;;5025038;28;20049;-73
2022/12/12 05:52:28;;;;;;;18.80;9.00;;;;;;;;;;5028274;28;20037;-73
2022/12/12 05:54:54;;;;;;;21.77;10.50;;;;;;;;;;5024307;28;20075;-73
2022/12/12 05:57:20;;;;;;;23.98;11.65;;;;;;;;;;5008735;28;20104;-73
2022/12/12 05:59:46;;;;;;;31.45;15.48;;;;;;;;;;5026302;28;20041;-73
2022/12/12 06:02:13;;;;;;;22.60;11.60;;;;;;;;;;5023803;28;20032;-73
2022/12/12 06:04:39;;;;;;;23.35;12.00;;;;;;;;;;5023653;28;20034;-74
2022/12/12 06:07:05;;;;;;;20.38;10.00;;;;;;;;;;5020091;28;20026;-74
2022/12/12 06:09:31;;;;;;;18.60;9.93;;;;;;;;;;5027345;28;20057;-73
2022/12/12 06:11:57;;;;;;;18.75;10.35;;;;;;;;;;5025044;28;20112;-74
2022/12/12 06:14:24;;;;;;;18.73;11.40;;;;;;;;;;5008049;28;20044;-73
2022/12/12 06:16:50;;;;;;;17.00;9.85;;;;;;;;;;5024132;28;20021;-73
2022/12/12 06:19:19;;;;;;;15.70;9.00;;;;;;;;;;5017658;28;20119;-73
2022/12/12 06:21:46;;;;;;;16.90;9.13;;;;;;;;;;5019544;28;20059;-74
2022/12/12 06:24:12;;;;;;;17.65;9.80;;;;;;;;;;5023370;28;20033;-73
2022/12/12 06:26:38;;;;;;;28.15;12.57;;;;;;;;;;5019161;28;20029;-73
2022/12/12 06:29:04;;;;;;;24.80;13.18;;;;;;;;;;5023007;28;20176;-73
2022/12/12 06:31:30;;;;;;;22.65;12.68;;;;;;;;;;5021092;28;20567;-73
2022/12/12 06:33:56;;;;;;;24.65;12.70;;;;;;;;;;5022964;28;20033;-74
2022/12/12 06:36:23;;;;;;;26.08;13.90;;;;;;;;;;5024916;28;20068;-74
2022/12/12 06:38:54;;;;;;;26.73;13.30;;;;;;;;;;5023338;28;20460;-73
2022/12/12 06:41:21;;;;;;;27.13;15.80;;;;;;;;;;5022930;28;20029;-73
2022/12/12 06:43:47;;;;;;;30.83;16.60;;;;;;;;;;5021752;28;20046;-74
2022/12/12 06:46:15;;;;;;;39.83;21.23;;;;;;;;;;5023476;28;20033;-73
2022/12/12 06:48:41;;;;;;;53.90;30.20;;;;;;;;;;5004111;28;20067;-74
2022/12/12 06:51:08;;;;;;;52.10;29.63;;;;;;;;;;5024286;28;20041;-73
2022/12/12 06:53:34;;;;;;;57.65;29.98;;;;;;;;;;5023651;28;20041;-73
2022/12/12 06:56:04;;;;;;;57.70;33.05;;;;;;;;;;5008683;28;20032;-73
2022/12/12 06:58:30;;;;;;;71.85;42.13;;;;;;;;;;5019357;28;20658;-73
2022/12/12 07:00:56;;;;;;;57.30;35.97;;;;;;;;;;5019752;28;20037;-73
2022/12/12 07:03:22;;;;;;;37.20;23.05;;;;;;;;;;5023125;28;21895;-73
2022/12/12 07:05:48;;;;;;;35.53;19.48;;;;;;;;;;5023331;28;20037;-73
2022/12/12 07:08:15;;;;;;;34.45;18.95;;;;;;;;;;5020766;28;20104;-73
2022/12/12 07:10:42;;;;;;;35.00;19.95;;;;;;;;;;5023937;28;20049;-73
2022/12/12 07:13:09;;;;;;;28.23;16.17;;;;;;;;;;5021087;28;20037;-73
2022/12/12 07:15:40;;;;;;;32.63;17.67;;;;;;;;;;5023428;28;20025;-73
2022/12/12 07:18:06;;;;;;;30.98;16.13;;;;;;;;;;5022677;28;20108;-73
2022/12/12 07:20:33;;;;;;;27.35;14.60;;;;;;;;;;5022802;28;20504;-73
2022/12/12 07:22:59;;;;;;;30.40;15.18;;;;;;;;;;5025212;28;20030;-73
2022/12/12 07:25:25;;;;;;;40.67;19.63;;;;;;;;;;5022119;28;20040;-73
2022/12/12 07:27:51;;;;;;;40.67;20.05;;;;;;;;;;5020323;28;20044;-73
2022/12/12 07:30:17;;;;;;;42.53;18.77;;;;;;;;;;5023105;28;20065;-72
2022/12/12 07:32:43;;;;;;;32.63;16.35;;;;;;;;;;5020992;28;20052;-73
2022/12/12 07:35:09;;;;;;;34.58;16.10;;;;;;;;;;5022080;28;20052;-73
2022/12/12 07:37:35;;;;;;;33.80;15.30;;;;;;;;;;5021189;28;20029;-73
2022/12/12 07:40:01;;;;;;;32.55;17.67;;;;;;;;;;5023554;28;20365;-73
2022/12/12 07:42:27;;;;;;;37.90;18.33;;;;;;;;;;5025924;28;20858;-73
2022/12/12 07:44:53;;;;;;;45.28;24.00;;;;;;;;;;5022684;28;20045;-73
2022/12/12 07:47:19;;;;;;;44.40;22.27;;;;;;;;;;5023944;28;20083;-73
2022/12/12 07:49:45;;;;;;;44.28;23.92;;;;;;;;;;5025575;28;20033;-73
2022/12/12 07:52:11;;;;;;;52.20;24.20;;;;;;;;;;5021719;28;20029;-73
2022/12/12 07:54:37;;;;;;;61.65;27.85;;;;;;;;;;5024129;28;20033;-73
2022/12/12 07:57:03;;;;;;;81.55;36.83;;;;;;;;;;5023421;28;20044;-73
2022/12/12 07:59:29;;;;;;;110.15;46.55;;;;;;;;;;5021347;28;20758;-73
2022/12/12 08:01:55;;;;;;;105.38;44.30;;;;;;;;;;5022221;28;20072;-73
2022/12/12 08:04:21;;;;;;;98.22;42.53;;;;;;;;;;5020608;28;20079;-73
2022/12/12 08:06:47;;;;;;;93.53;41.85;;;;;;;;;;5023730;28;20029;-74
2022/12/12 08:09:13;;;;;;;87.22;37.97;;;;;;;;;;5024380;28;20045;-73
2022/12/12 08:11:39;;;;;;;87.65;37.05;;;;;;;;;;5022494;28;20477;-73
2022/12/12 08:14:07;;;;;;;89.75;38.15;;;;;;;;;;5016219;28;20757;-73
2022/12/12 08:16:33;;;;;;;88.55;38.42;;;;;;;;;;5023173;28;20041;-73
2022/12/12 08:18:59;;;;;;;85.65;35.55;;;;;;;;;;5018853;28;20041;-73
2022/12/12 08:21:26;;;;;;;72.75;32.47;;;;;;;;;;5023058;28;20033;-73
2022/12/12 08:23:55;;;;;;;69.95;31.75;;;;;;;;;;5019820;28;20061;-73
2022/12/12 08:26:21;;;;;;;65.68;28.38;;;;;;;;;;5019654;28;20021;-73
2022/12/12 08:28:50;;;;;;;65.65;30.73;;;;;;;;;;5024642;28;20036;-73
2022/12/12 08:31:17;;;;;;;63.53;29.98;;;;;;;;;;5025672;28;20056;-73
2022/12/12 08:33:43;;;;;;;58.63;27.98;;;;;;;;;;5024856;28;20033;-73
2022/12/12 08:36:23;;;;;;;58.95;26.05;;;;;;;;;;5027965;28;20476;-73
2022/12/12 08:38:49;;;;;;;64.18;31.90;;;;;;;;;;5023032;28;20625;-73
2022/12/12 08:41:15;;;;;;;64.93;30.15;;;;;;;;;;5027850;28;20041;-73
2022/12/12 08:43:42;;;;;;;58.10;30.45;;;;;;;;;;5023633;28;20140;-73
2022/12/12 08:46:09;;;;;;;48.72;24.88;;;;;;;;;;5024375;28;21010;-73
2022/12/12 08:48:35;;;;;;;49.67;24.02;;;;;;;;;;5025799;28;20041;-73
2022/12/12 08:51:01;;;;;;;44.15;22.08;;;;;;;;;;5024355;28;20053;-73
2022/12/12 08:53:27;;;;;;;51.20;23.83;;;;;;;;;;5018690;28;20037;-73
2022/12/12 08:55:53;;;;;;;47.70;23.75;;;;;;;;;;5024207;28;20127;-73
2022/12/12 08:58:20;;;;;;;36.65;18.60;;;;;;;;;;5025176;28;20477;-73
2022/12/12 09:00:46;;;;;;;36.08;17.42;;;;;;;;;;5027119;28;20033;-73
2022/12/12 09:03:12;;;;;;;36.20;18.02;;;;;;;;;;5023027;28;20029;-73
2022/12/12 09:05:42;;;;;;;43.00;21.50;;;;;;;;;;5021632;28;20072;-73
2022/12/12 09:08:08;;;;;;;35.85;18.15;;;;;;;;;;5022420;28;20041;-73
2022/12/12 09:10:34;;;;;;;44.08;22.05;;;;;;;;;;5018360;28;20140;-73
2022/12/12 09:13:00;;;;;;;46.05;23.13;;;;;;;;;;5024202;28;20029;-73
2022/12/12 09:15:26;;;;;;;51.40;24.80;;;;;;;;;;5020538;28;20037;-73
2022/12/12 09:17:52;;;;;;;46.53;22.95;;;;;;;;;;5018972;28;20037;-72
2022/12/12 09:20:18;;;;;;;41.70;20.13;;;;;;;;;;5022020;28;20041;-73
2022/12/12 09:22:44;;;;;;;56.40;22.98;;;;;;;;;;5015648;28;20698;-72
2022/12/12 09:25:10;;;;;;;70.00;29.95;;;;;;;;;;5025940;28;20053;-73
2022/12/12 09:27:36;;;;;;;104.20;42.92;;;;;;;;;;5023856;28;20037;-73
2022/12/12 09:30:03;;;;;;;99.05;38.80;;;;;;;;;;5021920;28;20034;-73
2022/12/12 09:32:29;;;;;;;94.70;36.00;;;;;;;;;;5021364;28;20689;-73
2022/12/12 09:34:55;;;;;;;84.47;33.63;;;;;;;;;;5016551;28;20048;-73
2022/12/12 09:37:21;;;;;;;73.28;28.58;;;;;;;;;;5023241;28;20037;-73
2022/12/12 09:39:47;;;;;;;53.03;25.95;;;;;;;;;;5023040;28;20045;-72
2022/12/12 09:42:21;;;;;;;51.92;22.90;;;;;;;;;;5022861;28;20177;-73
2022/12/12 09:44:47;;;;;;;43.90;19.73;;;;;;;;;;5026148;28;20044;-73
2022/12/12 09:47:17;;;;;;;39.10;20.55;;;;;;;;;;5020642;28;20080;-73
2022/12/12 09:49:48;;;;;;;37.95;20.02;;;;;;;;;;5023974;28;20044;-73
2022/12/12 09:52:20;;;;;;;38.40;19.10;;;;;;;;;;5025470;28;20066;-73
2022/12/12 09:54:46;;;;;;;38.70;18.95;;;;;;;;;;5021805;28;20037;-72
2022/12/12 09:57:20;;;;;;;45.45;22.90;;;;;;;;;;5023174;28;20043;-73
2022/12/12 09:59:55;;;;;;;35.03;18.77;;;;;;;;;;5025112;28;20033;-73
2022/12/12 10:02:21;;;;;;;46.35;19.98;;;;;;;;;;5025050;28;20048;-73
2022/12/12 10:05:06;;;;;;;37.17;20.38;;;;;;;;;;5026191;28;20457;-72
2022/12/12 10:07:38;;;;;;;33.45;16.77;;;;;;;;;;5022139;28;20029;-73
2022/12/12 10:10:13;;;;;;;32.03;15.57;;;;;;;;;;4993661;28;20137;-73
2022/12/12 10:12:39;;;;;;;42.67;21.67;;;;;;;;;;5013448;28;20045;-73
2022/12/12 10:15:07;;;;;;;43.63;22.42;;;;;;;;;;4999929;28;20034;-73
2022/12/12 10:17:39;;;;;;;34.22;17.00;;;;;;;;;;5003272;28;20099;-72
2022/12/12 10:20:13;;;;;;;29.42;14.98;;;;;;;;;;5005136;28;20030;-73
2022/12/12 10:22:57;;;;;;;29.35;14.95;;;;;;;;;;5000016;28;20061;-73
2022/12/12 10:25:36;;;;;;;26.27;13.82;;;;;;;;;;5004388;28;20042;-72
2022/12/12 10:28:10;;;;;;;29.80;14.50;;;;;;;;;;5001974;28;20037;-72
2022/12/12 10:30:38;;;;;;;47.72;24.75;;;;;;;;;;5003638;28;20137;-72
2022/12/12 10:33:11;;;;;;;31.30;18.30;;;;;;;;;;5004901;28;20428;-73
2022/12/12 10:35:53;;;;;;;28.45;13.55;;;;;;;;;;5004708;28;20034;-73
2022/12/12 10:38:32;;;;;;;25.45;14.02;;;;;;;;;;5003597;28;20052;-72
2022/12/12 10:41:03;;;;;;;21.98;11.10;;;;;;;;;;5003177;28;20563;-73
2022/12/12 10:43:34;;;;;;;20.50;10.27;;;;;;;;;;5003353;28;20034;-73
2022/12/12 10:46:09;;;;;;;15.23;7.53;;;;;;;;;;5001727;28;20030;-73
2022/12/12 10:48:35;;;;;;;14.00;6.82;;;;;;;;;;5017985;28;20037;-73
2022/12/12 10:51:03;;;;;;;16.90;8.73;;;;;;;;;;5004099;28;20101;-73
2022/12/12 10:53:31;;;;;;;21.25;9.68;;;;;;;;;;5005367;28;20111;-72
2022/12/12 10:56:05;;;;;;;23.20;10.57;;;;;;;;;;5001965;28;20029;-73
2022/12/12 10:58:38;;;;;;;19.75;9.48;;;;;;;;;;5000429;28;20042;-73
2022/12/12 11:01:11;;;;;;;14.77;8.77;;;;;;;;;;5002993;28;20029;-73
2022/12/12 11:04:03;;;;;;;14.63;7.15;;;;;;;;;;5003762;28;20044;-73
2022/12/12 11:06:43;;;;;;;24.80;10.63;;;;;;;;;;4999543;28;20049;-72
2022/12/12 11:09:16;;;;;;;42.42;21.02;;;;;;;;;;5006035;28;20056;-72
2022/12/12 11:11:56;;;;;;;55.95;28.13;;;;;;;;;;5024884;28;20034;-72
2022/12/12 11:14:26;;;;;;;55.67;29.73;;;;;;;;;;5022555;28;20112;-72
2022/12/12 11:16:52;;;;;;;56.22;28.80;;;;;;;;;;5022505;28;20043;-72
2022/12/12 11:19:26;;;;;;;76.72;37.80;;;;;;;;;;5023162;28;20042;-73
2022/12/12 11:21:53;;;;;;;50.90;25.95;;;;;;;;;;5023558;28;20203;-72
2022/12/12 11:24:26;;;;;;;30.70;19.13;;;;;;;;;;5018895;28;20426;-73
2022/12/12 11:26:57;;;;;;;26.85;17.38;;;;;;;;;;5023461;28;20052;-72
2022/12/12 11:29:26;;;;;;;20.95;12.88;;;;;;;;;;5020209;28;20044;-72
2022/12/12 11:31:53;;;;;;;41.92;21.88;;;;;;;;;;5022993;28;20029;-72
2022/12/12 11:34:20;;;;;;;31.42;15.70;;;;;;;;;;5023166;28;20427;-72
2022/12/12 11:36:47;;;;;;;17.80;9.68;;;;;;;;;;5022480;28;20659;-72
2022/12/12 11:39:35;;;;;;;14.75;8.20;;;;;;;;;;5022410;28;20033;-72
2022/12/12 11:42:04;;;;;;;27.35;11.95;;;;;;;;;;5021350;28;20041;-72
2022/12/12 11:44:33;;;;;;;335.48;93.13;;;;;;;;;;5024401;28;20041;-72
2022/12/12 11:47:16;;;;;;;243.27;67.18;;;;;;;;;;5022312;28;20079;-72
2022/12/12 11:49:46;;;;;;;86.55;27.08;;;;;;;;;;5024290;28;20030;-72
2022/12/12 11:52:38;;;;;;;72.13;21.05;;;;;;;;;;5018256;28;20029;-73
2022/12/12 11:55:09;;;;;;;21.05;8.40;;;;;;;;;;5012037;28;20730;-73
2022/12/12 11:57:44;;;;;;;18.25;7.90;;;;;;;;;;5019818;28;20045;-73
2022/12/12 12:00:20;;;;;;;15.50;6.28;;;;;;;;;;5018436;28;20029;-72
2022/12/12 12:02:59;;;;;;;18.45;7.40;;;;;;;;;;5020432;28;20652;-72
2022/12/12 12:05:51;;;;;;;12.80;5.93;;;;;;;;;;5015651;28;20084;-72
2022/12/12 12:08:29;;;;;;;12.43;6.18;;;;;;;;;;5020051;28;20036;-72
2022/12/12 12:11:01;;;;;;;13.10;5.63;;;;;;;;;;5018369;28;20045;-73
2022/12/12 12:13:30;;;;;;;11.80;4.68;;;;;;;;;;5016584;28;20112;-73
2022/12/12 12:15:59;;;;;;;10.55;4.85;;;;;;;;;;5017620;28;20077;-72
2022/12/12 12:18:51;;;;;;;11.50;4.90;;;;;;;;;;5020153;28;20034;-72
2022/12/12 12:21:24;;;;;;;9.70;4.80;;;;;;;;;;5018184;28;20481;-73
2022/12/12 12:23:50;;;;;;;8.43;3.40;;;;;;;;;;5018172;28;20128;-72
2022/12/12 12:26:24;;;;;;;8.55;3.65;;;;;;;;;;5019290;28;20316;-73
2022/12/12 12:28:50;;;;;;;7.60;3.42;;;;;;;;;;5022749;28;20033;-73
2022/12/12 12:31:19;;;;;;;7.47;3.63;;;;;;;;;;5021281;28;20044;-73
2022/12/12 12:33:51;;;;;;;6.72;3.05;;;;;;;;;;5022789;28;20116;-72
2022/12/12 12:36:17;;;;;;;9.07;3.08;;;;;;;;;;5019865;28;20029;-72
2022/12/12 12:39:01;;;;;;;6.07;1.90;;;;;;;;;;5016631;28;20100;-73
2022/12/12 12:41:29;;;;;;;4.78;1.85;;;;;;;;;;5014082;28;20034;-72
2022/12/12 12:43:55;;;;;;;5.50;2.08;;;;;;;;;;5020497;28;20038;-72
2022/12/12 12:46:45;;;;;;;9.25;3.65;;;;;;;;;;5021351;28;20872;-72
2022/12/12 12:49:32;;;;;;;10.52;4.00;;;;;;;;;;4974872;28;20868;-73
2022/12/12 12:52:01;;;;;;;19.58;7.63;;;;;;;;;;5017868;28;20029;-72
2022/12/12 12:54:33;;;;;;;14.23;5.82;;;;;;;;;;5015949;28;20539;-73
2022/12/12 12:57:14;;;;;;;12.80;4.65;;;;;;;;;;5015644;28;20168;-72
2022/12/12 12:59:43;;;;;;;9.30;2.72;;;;;;;;;;5023324;28;20465;-73
2022/12/12 13:02:17;;;;;;;7.68;3.15;;;;;;;;;;5017638;28;20488;-72
2022/12/12 13:04:46;;;;;;;7.10;2.63;;;;;;;;;;5020071;28;20503;-72
2022/12/12 13:07:28;;;;;;;6.97;2.63;;;;;;;;;;5020700;28;20037;-73
2022/12/12 13:10:00;;;;;;;8.65;2.70;;;;;;;;;;5020246;28;20091;-73
2022/12/12 13:12:26;;;;;;;;;;;;;;;;;;5021793;28;20021;-72
2022/12/12 13:15:02;;;;;;;5.43;1.92;;;;;;;;;;5016641;28;19947;-72
2022/12/12 13:17:48;;;;;;;8.25;2.58;;;;;;;;;;5015954;28;20029;-72
2022/12/12 13:20:20;;;;;;;8.50;2.67;;;;;;;;;;5019273;28;21765;-72
2022/12/12 13:23:01;;;;;;;9.07;3.40;;;;;;;;;;5018368;28;20105;-73
2022/12/12 13:25:32;;;;;;;10.45;4.22;;;;;;;;;;5024743;28;20040;-72
2022/12/12 13:28:00;;;;;;;7.85;4.47;;;;;;;;;;5023288;28;20026;-73
2022/12/12 13:30:40;;;;;;;8.02;3.70;;;;;;;;;;5018897;28;20710;-72
2022/12/12 13:33:12;;;;;;;6.32;3.13;;;;;;;;;;5024071;28;20149;-72
2022/12/12 13:35:44;;;;;;;8.57;3.45;;;;;;;;;;5025143;28;20489;-72
2022/12/12 13:38:10;;;;;;;;;;;;;;;;;;5019153;28;20036;-72
2022/12/12 13:40:41;;;;;;;5.88;2.88;;;;;;;;;;5021632;28;19913;-73
2022/12/12 13:43:25;;;;;;;5.88;2.10;;;;;;;;;;5021157;28;20041;-72
2022/12/12 13:45:52;;;;;;;4.80;1.52;;;;;;;;;;5023841;28;20056;-72
2022/12/12 13:48:28;;;;;;;3.85;1.20;;;;;;;;;;5022968;28;20029;-73
2022/12/12 13:51:12;;;;;;;4.47;1.95;;;;;;;;;;5021565;28;20058;-73
2022/12/12 13:53:38;;;;;;;7.18;2.28;;;;;;;;;;5016769;28;20099;-73
2022/12/12 13:56:23;;;;;;;5.65;1.73;;;;;;;;;;5022271;28;20116;-73
2022/12/12 13:58:49;;;;;;;5.88;2.30;;;;;;;;;;5023971;28;20140;-73
2022/12/12 14:01:31;;;;;;;7.93;2.80;;;;;;;;;;5025380;28;20056;-73
2022/12/12 14:03:58;;;;;;;9.57;3.70;;;;;;;;;;5025748;28;20029;-73
2022/12/12 14:06:26;;;;;;;11.07;4.13;;;;;;;;;;5022197;28;20041;-73
2022/12/12 14:08:53;;;;;;;9.38;3.25;;;;;;;;;;5021826;28;20038;-73
2022/12/12 14:11:34;;;;;;;13.27;5.25;;;;;;;;;;5021319;28;20846;-73
2022/12/12 14:14:20;;;;;;;11.00;5.25;;;;;;;;;;5020840;28;20072;-72
2022/12/12 14:16:53;;;;;;;16.95;7.90;;;;;;;;;;5024149;28;20730;-72
2022/12/12 14:19:32;;;;;;;18.55;9.63;;;;;;;;;;5022151;28;20053;-72
2022/12/12 14:21:58;;;;;;;20.65;9.10;;;;;;;;;;5020371;28;20034;-73
2022/12/12 14:24:33;;;;;;;19.17;9.10;;;;;;;;;;5021980;28;20034;-73
2022/12/12 14:27:03;;;;;;;19.05;10.25;;;;;;;;;;5023325;28;20822;-73
2022/12/12 14:29:31;;;;;;;18.92;9.20;;;;;;;;;;5021771;28;20033;-73
2022/12/12 14:31:57;;;;;;;16.27;8.65;;;;;;;;;;5020402;28;20038;-73
2022/12/12 14:34:26;;;;;;;16.45;7.82;;;;;;;;;;5021377;28;20083;-73
2022/12/12 14:37:11;;;;;;;13.23;5.70;;;;;;;;;;5021840;28;20037;-73
2022/12/12 14:39:45;;;;;;;13.80;5.47;;;;;;;;;;5022826;28;20037;-73
2022/12/12 14:42:38;;;;;;;7.90;3.72;;;;;;;;;;5022071;28;20040;-73
2022/12/12 14:45:22;;;;;;;10.48;4.32;;;;;;;;;;4991475;28;20085;-73
2022/12/12 14:47:48;;;;;;;11.13;5.72;;;;;;;;;;5022493;28;20032;-73
2022/12/12 14:50:17;;;;;;;15.43;7.45;;;;;;;;;;5022104;28;20033;-73
2022/12/12 14:52:43;;;;;;;16.27;8.05;;;;;;;;;;5021996;28;20029;-73
2022/12/12 14:55:15;;;;;;;16.63;7.57;;;;;;;;;;5024506;28;20045;-73
2022/12/12 14:57:41;;;;;;;13.80;7.18;;;;;;;;;;5022010;28;20030;-73
2022/12/12 15:00:19;;;;;;;15.18;7.57;;;;;;;;;;5020483;28;20572;-73